sensor_id;sensor_type;location;lat;lon;timestamp;temperature;humidity
71128;SHT30;59249;59.736;30.568;2023-04-25T00:00:37;11.18;76.98
71128;SHT30;59249;59.736;30.568;2023-04-25T00:03:06;11.18;76.49
71128;SHT30;59249;59.736;30.568;2023-04-25T00:05:36;11.12;75.65
71128;SHT30;59249;59.736;30.568;2023-04-25T00:08:06;11.21;74.66
71128;SHT30;59249;59.736;30.568;2023-04-25T00:10:36;11.30;73.82
71128;SHT30;59249;59.736;30.568;2023-04-25T00:13:05;11.46;72.57
71128;SHT30;59249;59.736;30.568;2023-04-25T00:15:33;11.55;71.94
71128;SHT30;59249;59.736;30.568;2023-04-25T00:18:04;11.64;71.55
71128;SHT30;59249;59.736;30.568;2023-04-25T00:20:35;11.65;71.09
71128;SHT30;59249;59.736;30.568;2023-04-25T00:23:05;11.70;70.77
71128;SHT30;59249;59.736;30.568;2023-04-25T00:25:33;11.65;70.49
71128;SHT30;59249;59.736;30.568;2023-04-25T00:28:03;11.63;70.48
71128;SHT30;59249;59.736;30.568;2023-04-25T00:30:32;11.58;70.44
71128;SHT30;59249;59.736;30.568;2023-04-25T00:33:00;11.50;70.52
71128;SHT30;59249;59.736;30.568;2023-04-25T00:35:31;11.47;70.40
71128;SHT30;59249;59.736;30.568;2023-04-25T00:38:00;11.36;70.42
71128;SHT30;59249;59.736;30.568;2023-04-25T00:40:29;11.36;70.17
71128;SHT30;59249;59.736;30.568;2023-04-25T00:42:58;11.24;70.24
71128;SHT30;59249;59.736;30.568;2023-04-25T00:45:28;11.20;70.17
71128;SHT30;59249;59.736;30.568;2023-04-25T00:47:58;11.13;70.26
71128;SHT30;59249;59.736;30.568;2023-04-25T00:50:26;10.97;70.15
71128;SHT30;59249;59.736;30.568;2023-04-25T00:52:57;10.94;70.14
71128;SHT30;59249;59.736;30.568;2023-04-25T00:55:26;10.91;70.00
71128;SHT30;59249;59.736;30.568;2023-04-25T00:57:56;10.78;70.40
71128;SHT30;59249;59.736;30.568;2023-04-25T01:00:25;10.76;70.36
71128;SHT30;59249;59.736;30.568;2023-04-25T01:02:54;10.68;70.43
71128;SHT30;59249;59.736;30.568;2023-04-25T01:05:23;10.64;70.32
71128;SHT30;59249;59.736;30.568;2023-04-25T01:07:52;10.60;70.33
71128;SHT30;59249;59.736;30.568;2023-04-25T01:10:22;10.60;70.25
71128;SHT30;59249;59.736;30.568;2023-04-25T01:12:52;10.59;70.09
71128;SHT30;59249;59.736;30.568;2023-04-25T01:15:20;10.57;69.94
71128;SHT30;59249;59.736;30.568;2023-04-25T01:17:49;10.60;69.63
71128;SHT30;59249;59.736;30.568;2023-04-25T01:20:21;10.60;69.57
71128;SHT30;59249;59.736;30.568;2023-04-25T01:22:53;10.59;69.30
71128;SHT30;59249;59.736;30.568;2023-04-25T01:25:22;10.55;69.24
71128;SHT30;59249;59.736;30.568;2023-04-25T01:27:52;10.59;69.07
71128;SHT30;59249;59.736;30.568;2023-04-25T01:30:21;10.51;68.80
71128;SHT30;59249;59.736;30.568;2023-04-25T01:32:51;10.51;68.70
71128;SHT30;59249;59.736;30.568;2023-04-25T01:35:22;10.50;68.48
71128;SHT30;59249;59.736;30.568;2023-04-25T01:37:55;10.54;68.19
71128;SHT30;59249;59.736;30.568;2023-04-25T01:40:24;10.55;67.77
71128;SHT30;59249;59.736;30.568;2023-04-25T01:42:54;10.61;67.29
71128;SHT30;59249;59.736;30.568;2023-04-25T01:45:23;10.67;67.05
71128;SHT30;59249;59.736;30.568;2023-04-25T01:47:53;10.70;66.75
71128;SHT30;59249;59.736;30.568;2023-04-25T01:50:22;10.78;66.34
71128;SHT30;59249;59.736;30.568;2023-04-25T01:52:51;10.87;66.04
71128;SHT30;59249;59.736;30.568;2023-04-25T01:55:22;10.95;65.30
71128;SHT30;59249;59.736;30.568;2023-04-25T01:58:10;11.10;65.08
71128;SHT30;59249;59.736;30.568;2023-04-25T02:01:09;11.08;64.67
71128;SHT30;59249;59.736;30.568;2023-04-25T02:03:46;11.18;64.40
71128;SHT30;59249;59.736;30.568;2023-04-25T02:06:25;11.21;64.29
71128;SHT30;59249;59.736;30.568;2023-04-25T02:08:56;11.27;64.11
71128;SHT30;59249;59.736;30.568;2023-04-25T02:11:26;11.33;63.95
71128;SHT30;59249;59.736;30.568;2023-04-25T02:14:34;11.43;63.67
71128;SHT30;59249;59.736;30.568;2023-04-25T02:17:13;11.46;63.49
71128;SHT30;59249;59.736;30.568;2023-04-25T02:19:42;11.48;63.51
71128;SHT30;59249;59.736;30.568;2023-04-25T02:22:11;11.49;63.57
71128;SHT30;59249;59.736;30.568;2023-04-25T02:24:39;11.50;63.43
71128;SHT30;59249;59.736;30.568;2023-04-25T02:27:09;11.55;63.34
71128;SHT30;59249;59.736;30.568;2023-04-25T02:29:38;11.52;63.58
71128;SHT30;59249;59.736;30.568;2023-04-25T02:32:09;11.54;63.37
71128;SHT30;59249;59.736;30.568;2023-04-25T02:34:38;11.52;63.36
71128;SHT30;59249;59.736;30.568;2023-04-25T02:37:07;11.56;63.11
71128;SHT30;59249;59.736;30.568;2023-04-25T02:39:36;11.55;63.39
71128;SHT30;59249;59.736;30.568;2023-04-25T02:42:04;11.59;63.01
71128;SHT30;59249;59.736;30.568;2023-04-25T02:44:34;11.62;62.94
71128;SHT30;59249;59.736;30.568;2023-04-25T02:47:05;11.66;62.96
71128;SHT30;59249;59.736;30.568;2023-04-25T02:49:34;11.71;62.75
71128;SHT30;59249;59.736;30.568;2023-04-25T02:52:04;11.68;62.74
71128;SHT30;59249;59.736;30.568;2023-04-25T02:54:33;11.70;62.79
71128;SHT30;59249;59.736;30.568;2023-04-25T02:57:02;11.72;62.73
71128;SHT30;59249;59.736;30.568;2023-04-25T02:59:37;11.73;62.60
71128;SHT30;59249;59.736;30.568;2023-04-25T03:02:05;11.82;62.54
71128;SHT30;59249;59.736;30.568;2023-04-25T03:04:34;11.87;62.66
71128;SHT30;59249;59.736;30.568;2023-04-25T03:07:04;11.87;62.52
71128;SHT30;59249;59.736;30.568;2023-04-25T03:09:33;11.90;62.49
71128;SHT30;59249;59.736;30.568;2023-04-25T03:12:03;11.94;62.40
71128;SHT30;59249;59.736;30.568;2023-04-25T03:14:33;11.97;62.42
71128;SHT30;59249;59.736;30.568;2023-04-25T03:17:03;12.01;62.09
71128;SHT30;59249;59.736;30.568;2023-04-25T03:19:35;12.06;61.93
71128;SHT30;59249;59.736;30.568;2023-04-25T03:22:03;12.10;62.08
71128;SHT30;59249;59.736;30.568;2023-04-25T03:24:32;12.20;61.87
71128;SHT30;59249;59.736;30.568;2023-04-25T03:27:01;12.16;61.88
71128;SHT30;59249;59.736;30.568;2023-04-25T03:29:30;12.25;61.58
71128;SHT30;59249;59.736;30.568;2023-04-25T03:32:04;12.29;61.45
71128;SHT30;59249;59.736;30.568;2023-04-25T03:34:33;12.36;61.32
71128;SHT30;59249;59.736;30.568;2023-04-25T03:37:02;12.46;61.15
71128;SHT30;59249;59.736;30.568;2023-04-25T03:39:35;12.48;60.92
71128;SHT30;59249;59.736;30.568;2023-04-25T03:42:06;12.53;60.87
71128;SHT30;59249;59.736;30.568;2023-04-25T03:44:35;12.58;60.73
71128;SHT30;59249;59.736;30.568;2023-04-25T03:47:06;12.59;60.64
71128;SHT30;59249;59.736;30.568;2023-04-25T03:49:35;12.62;60.69
71128;SHT30;59249;59.736;30.568;2023-04-25T03:52:09;12.70;60.65
71128;SHT30;59249;59.736;30.568;2023-04-25T03:54:40;12.79;60.40
71128;SHT30;59249;59.736;30.568;2023-04-25T03:57:16;12.89;60.50
71128;SHT30;59249;59.736;30.568;2023-04-25T03:59:44;12.89;60.27
71128;SHT30;59249;59.736;30.568;2023-04-25T04:02:17;12.94;60.19
71128;SHT30;59249;59.736;30.568;2023-04-25T04:04:46;13.00;59.77
71128;SHT30;59249;59.736;30.568;2023-04-25T04:07:16;13.04;59.93
71128;SHT30;59249;59.736;30.568;2023-04-25T04:09:47;13.11;59.79
71128;SHT30;59249;59.736;30.568;2023-04-25T04:12:24;13.22;59.81
71128;SHT30;59249;59.736;30.568;2023-04-25T04:14:53;13.27;59.40
71128;SHT30;59249;59.736;30.568;2023-04-25T04:17:23;13.31;59.60
71128;SHT30;59249;59.736;30.568;2023-04-25T04:19:52;13.40;59.46
71128;SHT30;59249;59.736;30.568;2023-04-25T04:22:21;13.46;59.31
71128;SHT30;59249;59.736;30.568;2023-04-25T04:24:52;13.41;58.85
71128;SHT30;59249;59.736;30.568;2023-04-25T04:27:38;13.55;59.05
71128;SHT30;59249;59.736;30.568;2023-04-25T04:30:35;13.59;58.41
71128;SHT30;59249;59.736;30.568;2023-04-25T04:33:09;13.69;58.27
71128;SHT30;59249;59.736;30.568;2023-04-25T04:35:39;13.78;58.06
71128;SHT30;59249;59.736;30.568;2023-04-25T04:38:09;13.82;57.86
71128;SHT30;59249;59.736;30.568;2023-04-25T04:40:39;13.93;57.92
71128;SHT30;59249;59.736;30.568;2023-04-25T04:43:13;13.97;57.39
71128;SHT30;59249;59.736;30.568;2023-04-25T04:46:09;14.07;57.39
71128;SHT30;59249;59.736;30.568;2023-04-25T04:48:54;14.11;56.90
71128;SHT30;59249;59.736;30.568;2023-04-25T04:51:53;14.27;57.00
71128;SHT30;59249;59.736;30.568;2023-04-25T04:54:52;14.32;56.61
71128;SHT30;59249;59.736;30.568;2023-04-25T04:57:47;14.41;56.61
71128;SHT30;59249;59.736;30.568;2023-04-25T05:00:48;14.64;56.46
71128;SHT30;59249;59.736;30.568;2023-04-25T05:03:40;14.78;55.99
71128;SHT30;59249;59.736;30.568;2023-04-25T05:06:34;14.98;55.85
71128;SHT30;59249;59.736;30.568;2023-04-25T05:09:21;15.05;54.82
71128;SHT30;59249;59.736;30.568;2023-04-25T05:12:22;15.14;54.86
71128;SHT30;59249;59.736;30.568;2023-04-25T05:15:10;15.20;54.42
71128;SHT30;59249;59.736;30.568;2023-04-25T05:17:59;15.32;54.43
71128;SHT30;59249;59.736;30.568;2023-04-25T05:20:41;15.36;53.57
71128;SHT30;59249;59.736;30.568;2023-04-25T05:23:37;15.55;53.79
71128;SHT30;59249;59.736;30.568;2023-04-25T05:26:24;15.83;53.53
71128;SHT30;59249;59.736;30.568;2023-04-25T05:29:00;16.00;52.79
71128;SHT30;59249;59.736;30.568;2023-04-25T05:31:38;16.18;52.57
71128;SHT30;59249;59.736;30.568;2023-04-25T05:34:13;16.38;52.79
71128;SHT30;59249;59.736;30.568;2023-04-25T05:36:59;16.55;51.99
71128;SHT30;59249;59.736;30.568;2023-04-25T05:39:30;16.67;51.60
71128;SHT30;59249;59.736;30.568;2023-04-25T05:42:17;16.72;51.59
71128;SHT30;59249;59.736;30.568;2023-04-25T05:44:53;16.81;51.31
71128;SHT30;59249;59.736;30.568;2023-04-25T05:47:42;16.83;51.14
71128;SHT30;59249;59.736;30.568;2023-04-25T05:50:26;16.93;51.20
71128;SHT30;59249;59.736;30.568;2023-04-25T05:52:59;16.98;51.10
71128;SHT30;59249;59.736;30.568;2023-04-25T05:55:33;17.01;51.03
71128;SHT30;59249;59.736;30.568;2023-04-25T05:58:16;17.14;51.19
71128;SHT30;59249;59.736;30.568;2023-04-25T06:00:45;17.26;50.73
71128;SHT30;59249;59.736;30.568;2023-04-25T06:03:14;17.42;50.25
71128;SHT30;59249;59.736;30.568;2023-04-25T06:05:47;17.61;50.36
71128;SHT30;59249;59.736;30.568;2023-04-25T06:08:16;17.82;49.39
71128;SHT30;59249;59.736;30.568;2023-04-25T06:10:46;17.87;48.25
71128;SHT30;59249;59.736;30.568;2023-04-25T06:13:15;18.04;48.25
71128;SHT30;59249;59.736;30.568;2023-04-25T06:15:43;18.17;48.20
71128;SHT30;59249;59.736;30.568;2023-04-25T06:18:12;18.37;48.33
71128;SHT30;59249;59.736;30.568;2023-04-25T06:20:41;18.56;47.89
71128;SHT30;59249;59.736;30.568;2023-04-25T06:23:10;18.70;47.45
71128;SHT30;59249;59.736;30.568;2023-04-25T06:25:53;18.90;47.30
71128;SHT30;59249;59.736;30.568;2023-04-25T06:28:22;18.88;46.57
71128;SHT30;59249;59.736;30.568;2023-04-25T06:30:51;18.93;46.86
71128;SHT30;59249;59.736;30.568;2023-04-25T06:33:20;18.89;46.37
71128;SHT30;59249;59.736;30.568;2023-04-25T06:35:50;18.85;46.53
71128;SHT30;59249;59.736;30.568;2023-04-25T06:38:23;18.84;46.11
71128;SHT30;59249;59.736;30.568;2023-04-25T06:40:54;18.78;45.78
71128;SHT30;59249;59.736;30.568;2023-04-25T06:43:23;18.82;46.06
71128;SHT30;59249;59.736;30.568;2023-04-25T06:46:10;18.79;45.55
71128;SHT30;59249;59.736;30.568;2023-04-25T06:48:44;18.77;45.67
71128;SHT30;59249;59.736;30.568;2023-04-25T06:51:13;18.78;45.38
71128;SHT30;59249;59.736;30.568;2023-04-25T06:53:42;18.77;45.32
71128;SHT30;59249;59.736;30.568;2023-04-25T06:56:21;18.79;44.87
71128;SHT30;59249;59.736;30.568;2023-04-25T06:58:57;18.74;44.24
71128;SHT30;59249;59.736;30.568;2023-04-25T07:01:30;18.83;44.44
71128;SHT30;59249;59.736;30.568;2023-04-25T07:04:03;18.79;44.60
71128;SHT30;59249;59.736;30.568;2023-04-25T07:06:34;18.82;44.66
71128;SHT30;59249;59.736;30.568;2023-04-25T07:09:05;18.88;44.84
71128;SHT30;59249;59.736;30.568;2023-04-25T07:11:35;18.90;45.10
71128;SHT30;59249;59.736;30.568;2023-04-25T07:14:04;18.98;45.00
71128;SHT30;59249;59.736;30.568;2023-04-25T07:16:33;19.08;44.75
71128;SHT30;59249;59.736;30.568;2023-04-25T07:19:03;19.19;44.38
71128;SHT30;59249;59.736;30.568;2023-04-25T07:21:32;19.22;44.41
71128;SHT30;59249;59.736;30.568;2023-04-25T07:24:06;19.27;44.59
71128;SHT30;59249;59.736;30.568;2023-04-25T07:26:40;19.35;44.43
71128;SHT30;59249;59.736;30.568;2023-04-25T07:29:36;19.35;43.92
71128;SHT30;59249;59.736;30.568;2023-04-25T07:32:07;19.47;43.56
71128;SHT30;59249;59.736;30.568;2023-04-25T07:34:38;19.58;43.54
71128;SHT30;59249;59.736;30.568;2023-04-25T07:37:09;19.69;43.15
71128;SHT30;59249;59.736;30.568;2023-04-25T07:39:50;19.77;41.85
71128;SHT30;59249;59.736;30.568;2023-04-25T07:42:21;19.86;40.87
71128;SHT30;59249;59.736;30.568;2023-04-25T07:44:49;19.86;39.63
71128;SHT30;59249;59.736;30.568;2023-04-25T07:47:19;19.84;39.46
71128;SHT30;59249;59.736;30.568;2023-04-25T07:49:47;19.87;39.52
71128;SHT30;59249;59.736;30.568;2023-04-25T07:52:17;19.97;39.01
71128;SHT30;59249;59.736;30.568;2023-04-25T07:54:52;20.01;38.83
71128;SHT30;59249;59.736;30.568;2023-04-25T07:57:29;20.10;39.03
71128;SHT30;59249;59.736;30.568;2023-04-25T07:59:58;20.12;38.67
71128;SHT30;59249;59.736;30.568;2023-04-25T08:02:32;20.17;38.07
71128;SHT30;59249;59.736;30.568;2023-04-25T08:05:01;20.18;37.83
71128;SHT30;59249;59.736;30.568;2023-04-25T08:07:30;20.23;37.80
71128;SHT30;59249;59.736;30.568;2023-04-25T08:10:04;20.19;37.68
71128;SHT30;59249;59.736;30.568;2023-04-25T08:12:35;20.25;37.90
71128;SHT30;59249;59.736;30.568;2023-04-25T08:15:06;20.28;38.03
71128;SHT30;59249;59.736;30.568;2023-04-25T08:17:39;20.31;38.32
71128;SHT30;59249;59.736;30.568;2023-04-25T08:20:09;20.36;38.16
71128;SHT30;59249;59.736;30.568;2023-04-25T08:22:40;20.43;37.64
71128;SHT30;59249;59.736;30.568;2023-04-25T08:25:31;20.57;37.18
71128;SHT30;59249;59.736;30.568;2023-04-25T08:28:06;20.61;36.61
71128;SHT30;59249;59.736;30.568;2023-04-25T08:30:35;20.64;36.26
71128;SHT30;59249;59.736;30.568;2023-04-25T08:33:05;20.71;36.17
71128;SHT30;59249;59.736;30.568;2023-04-25T08:35:47;20.77;36.12
71128;SHT30;59249;59.736;30.568;2023-04-25T08:38:17;20.84;36.10
71128;SHT30;59249;59.736;30.568;2023-04-25T08:40:50;20.91;36.24
71128;SHT30;59249;59.736;30.568;2023-04-25T08:43:23;20.96;35.89
71128;SHT30;59249;59.736;30.568;2023-04-25T08:45:53;20.97;35.47
71128;SHT30;59249;59.736;30.568;2023-04-25T08:48:33;21.04;34.86
71128;SHT30;59249;59.736;30.568;2023-04-25T08:51:07;21.07;34.59
71128;SHT30;59249;59.736;30.568;2023-04-25T08:53:39;21.12;34.68
71128;SHT30;59249;59.736;30.568;2023-04-25T08:56:12;21.15;34.16
71128;SHT30;59249;59.736;30.568;2023-04-25T08:58:44;21.16;34.84
71128;SHT30;59249;59.736;30.568;2023-04-25T09:01:13;21.19;34.87
71128;SHT30;59249;59.736;30.568;2023-04-25T09:03:49;21.17;34.41
71128;SHT30;59249;59.736;30.568;2023-04-25T09:06:19;21.03;35.15
71128;SHT30;59249;59.736;30.568;2023-04-25T09:08:50;20.95;35.05
71128;SHT30;59249;59.736;30.568;2023-04-25T09:11:18;20.90;35.10
71128;SHT30;59249;59.736;30.568;2023-04-25T09:14:11;21.03;35.08
71128;SHT30;59249;59.736;30.568;2023-04-25T09:17:00;21.21;35.62
71128;SHT30;59249;59.736;30.568;2023-04-25T09:19:41;21.41;35.27
71128;SHT30;59249;59.736;30.568;2023-04-25T09:22:34;21.51;34.98
71128;SHT30;59249;59.736;30.568;2023-04-25T09:25:08;21.45;34.91
71128;SHT30;59249;59.736;30.568;2023-04-25T09:27:49;21.40;35.38
71128;SHT30;59249;59.736;30.568;2023-04-25T09:30:32;21.36;35.20
71128;SHT30;59249;59.736;30.568;2023-04-25T09:33:30;21.45;34.98
71128;SHT30;59249;59.736;30.568;2023-04-25T09:36:06;21.64;34.71
71128;SHT30;59249;59.736;30.568;2023-04-25T09:38:51;21.94;34.13
71128;SHT30;59249;59.736;30.568;2023-04-25T09:41:31;21.99;33.97
71128;SHT30;59249;59.736;30.568;2023-04-25T09:44:01;22.08;33.91
71128;SHT30;59249;59.736;30.568;2023-04-25T09:46:36;22.12;34.12
71128;SHT30;59249;59.736;30.568;2023-04-25T09:49:10;22.14;33.60
71128;SHT30;59249;59.736;30.568;2023-04-25T09:51:59;22.04;33.36
71128;SHT30;59249;59.736;30.568;2023-04-25T09:54:37;22.16;33.48
71128;SHT30;59249;59.736;30.568;2023-04-25T09:57:22;22.16;33.66
71128;SHT30;59249;59.736;30.568;2023-04-25T09:59:54;22.26;33.71
71128;SHT30;59249;59.736;30.568;2023-04-25T10:02:27;22.45;33.90
71128;SHT30;59249;59.736;30.568;2023-04-25T10:05:06;22.61;33.61
71128;SHT30;59249;59.736;30.568;2023-04-25T10:07:41;22.60;33.19
71128;SHT30;59249;59.736;30.568;2023-04-25T10:10:15;22.60;33.58
71128;SHT30;59249;59.736;30.568;2023-04-25T10:12:46;22.61;33.52
71128;SHT30;59249;59.736;30.568;2023-04-25T10:15:15;22.65;33.45
71128;SHT30;59249;59.736;30.568;2023-04-25T10:17:45;22.68;33.19
71128;SHT30;59249;59.736;30.568;2023-04-25T10:20:14;22.59;33.36
71128;SHT30;59249;59.736;30.568;2023-04-25T10:22:46;22.58;33.21
71128;SHT30;59249;59.736;30.568;2023-04-25T10:25:16;22.60;32.90
71128;SHT30;59249;59.736;30.568;2023-04-25T10:27:45;22.55;32.73
71128;SHT30;59249;59.736;30.568;2023-04-25T10:30:14;22.40;32.64
71128;SHT30;59249;59.736;30.568;2023-04-25T10:32:46;22.39;32.82
71128;SHT30;59249;59.736;30.568;2023-04-25T10:35:24;22.40;32.84
71128;SHT30;59249;59.736;30.568;2023-04-25T10:38:09;22.66;32.85
71128;SHT30;59249;59.736;30.568;2023-04-25T10:40:38;22.87;32.67
71128;SHT30;59249;59.736;30.568;2023-04-25T10:43:38;22.82;32.36
71128;SHT30;59249;59.736;30.568;2023-04-25T10:46:15;22.74;32.08
71128;SHT30;59249;59.736;30.568;2023-04-25T10:48:48;22.67;32.17
71128;SHT30;59249;59.736;30.568;2023-04-25T10:51:21;22.57;32.47
71128;SHT30;59249;59.736;30.568;2023-04-25T10:53:59;22.45;32.45
71128;SHT30;59249;59.736;30.568;2023-04-25T10:56:30;22.39;32.51
71128;SHT30;59249;59.736;30.568;2023-04-25T10:59:08;22.57;32.15
71128;SHT30;59249;59.736;30.568;2023-04-25T11:01:41;22.77;32.17
71128;SHT30;59249;59.736;30.568;2023-04-25T11:04:24;22.96;32.23
71128;SHT30;59249;59.736;30.568;2023-04-25T11:07:06;22.86;31.90
71128;SHT30;59249;59.736;30.568;2023-04-25T11:09:39;22.80;32.17
71128;SHT30;59249;59.736;30.568;2023-04-25T11:12:09;22.75;32.28
71128;SHT30;59249;59.736;30.568;2023-04-25T11:14:39;22.95;32.03
71128;SHT30;59249;59.736;30.568;2023-04-25T11:17:08;23.13;31.73
71128;SHT30;59249;59.736;30.568;2023-04-25T11:19:39;23.33;30.79
71128;SHT30;59249;59.736;30.568;2023-04-25T11:22:10;23.28;30.68
71128;SHT30;59249;59.736;30.568;2023-04-25T11:24:39;23.24;30.60
71128;SHT30;59249;59.736;30.568;2023-04-25T11:27:08;23.38;30.60
71128;SHT30;59249;59.736;30.568;2023-04-25T11:29:37;23.22;30.97
71128;SHT30;59249;59.736;30.568;2023-04-25T11:32:06;23.03;31.14
71128;SHT30;59249;59.736;30.568;2023-04-25T11:34:35;23.01;31.49
71128;SHT30;59249;59.736;30.568;2023-04-25T11:37:05;22.86;31.42
71128;SHT30;59249;59.736;30.568;2023-04-25T11:39:34;22.77;31.49
71128;SHT30;59249;59.736;30.568;2023-04-25T11:42:04;22.71;31.62
71128;SHT30;59249;59.736;30.568;2023-04-25T11:44:40;22.79;31.83
71128;SHT30;59249;59.736;30.568;2023-04-25T11:47:09;22.99;31.48
71128;SHT30;59249;59.736;30.568;2023-04-25T11:49:38;23.29;30.83
71128;SHT30;59249;59.736;30.568;2023-04-25T11:52:08;23.60;30.47
71128;SHT30;59249;59.736;30.568;2023-04-25T11:54:37;23.82;30.67
71128;SHT30;59249;59.736;30.568;2023-04-25T11:57:06;24.10;30.76
71128;SHT30;59249;59.736;30.568;2023-04-25T11:59:34;24.12;29.54
71128;SHT30;59249;59.736;30.568;2023-04-25T12:02:03;24.18;29.51
71128;SHT30;59249;59.736;30.568;2023-04-25T12:04:34;24.33;29.86
71128;SHT30;59249;59.736;30.568;2023-04-25T12:07:03;24.36;29.77
71128;SHT30;59249;59.736;30.568;2023-04-25T12:09:34;24.33;30.19
71128;SHT30;59249;59.736;30.568;2023-04-25T12:12:03;23.98;29.55
71128;SHT30;59249;59.736;30.568;2023-04-25T12:14:35;23.79;29.77
71128;SHT30;59249;59.736;30.568;2023-04-25T12:17:04;23.57;29.87
71128;SHT30;59249;59.736;30.568;2023-04-25T12:19:37;23.47;29.95
71128;SHT30;59249;59.736;30.568;2023-04-25T12:22:20;23.39;30.29
71128;SHT30;59249;59.736;30.568;2023-04-25T12:24:51;23.43;30.54
71128;SHT30;59249;59.736;30.568;2023-04-25T12:27:21;23.50;30.43
71128;SHT30;59249;59.736;30.568;2023-04-25T12:29:52;23.45;30.22
71128;SHT30;59249;59.736;30.568;2023-04-25T12:32:22;23.31;30.23
71128;SHT30;59249;59.736;30.568;2023-04-25T12:34:50;23.40;30.14
71128;SHT30;59249;59.736;30.568;2023-04-25T12:37:19;23.36;30.40
71128;SHT30;59249;59.736;30.568;2023-04-25T12:39:48;23.38;30.24
71128;SHT30;59249;59.736;30.568;2023-04-25T12:42:18;23.53;29.77
71128;SHT30;59249;59.736;30.568;2023-04-25T12:44:47;23.88;29.92
71128;SHT30;59249;59.736;30.568;2023-04-25T12:47:15;24.10;29.88
71128;SHT30;59249;59.736;30.568;2023-04-25T12:49:44;24.23;29.72
71128;SHT30;59249;59.736;30.568;2023-04-25T12:52:15;24.36;29.36
71128;SHT30;59249;59.736;30.568;2023-04-25T12:54:44;24.34;29.65
71128;SHT30;59249;59.736;30.568;2023-04-25T12:57:14;24.20;29.50
71128;SHT30;59249;59.736;30.568;2023-04-25T12:59:44;23.98;29.58
71128;SHT30;59249;59.736;30.568;2023-04-25T13:02:14;23.82;29.44
71128;SHT30;59249;59.736;30.568;2023-04-25T13:04:43;23.92;29.56
71128;SHT30;59249;59.736;30.568;2023-04-25T13:07:13;24.00;29.22
71128;SHT30;59249;59.736;30.568;2023-04-25T13:09:44;24.09;29.36
71128;SHT30;59249;59.736;30.568;2023-04-25T13:12:15;24.20;29.56
71128;SHT30;59249;59.736;30.568;2023-04-25T13:15:11;24.25;29.64
71128;SHT30;59249;59.736;30.568;2023-04-25T13:17:42;24.20;29.29
71128;SHT30;59249;59.736;30.568;2023-04-25T13:20:11;24.08;29.48
71128;SHT30;59249;59.736;30.568;2023-04-25T13:22:42;23.95;29.22
71128;SHT30;59249;59.736;30.568;2023-04-25T13:25:12;23.93;29.45
71128;SHT30;59249;59.736;30.568;2023-04-25T13:27:41;24.04;29.38
71128;SHT30;59249;59.736;30.568;2023-04-25T13:30:13;23.80;29.23
71128;SHT30;59249;59.736;30.568;2023-04-25T13:32:42;23.61;29.27
71128;SHT30;59249;59.736;30.568;2023-04-25T13:35:13;23.47;29.46
71128;SHT30;59249;59.736;30.568;2023-04-25T13:37:42;23.32;29.75
71128;SHT30;59249;59.736;30.568;2023-04-25T13:40:11;23.27;29.77
71128;SHT30;59249;59.736;30.568;2023-04-25T13:42:40;23.22;30.20
71128;SHT30;59249;59.736;30.568;2023-04-25T13:45:09;23.15;30.42
71128;SHT30;59249;59.736;30.568;2023-04-25T13:47:39;23.20;30.29
71128;SHT30;59249;59.736;30.568;2023-04-25T13:50:09;23.27;30.01
71128;SHT30;59249;59.736;30.568;2023-04-25T13:52:38;23.27;30.08
71128;SHT30;59249;59.736;30.568;2023-04-25T13:55:07;23.24;30.23
71128;SHT30;59249;59.736;30.568;2023-04-25T13:57:40;23.27;30.19
71128;SHT30;59249;59.736;30.568;2023-04-25T14:00:13;23.31;30.10
71128;SHT30;59249;59.736;30.568;2023-04-25T14:03:02;23.55;30.34
71128;SHT30;59249;59.736;30.568;2023-04-25T14:05:37;23.71;29.39
71128;SHT30;59249;59.736;30.568;2023-04-25T14:08:08;23.78;29.09
71128;SHT30;59249;59.736;30.568;2023-04-25T14:10:48;23.84;29.16
71128;SHT30;59249;59.736;30.568;2023-04-25T14:13:18;23.99;29.13
71128;SHT30;59249;59.736;30.568;2023-04-25T14:15:47;23.94;28.94
71128;SHT30;59249;59.736;30.568;2023-04-25T14:18:19;23.81;28.70
71128;SHT30;59249;59.736;30.568;2023-04-25T14:20:51;23.83;29.18
71128;SHT30;59249;59.736;30.568;2023-04-25T14:23:20;23.64;29.36
71128;SHT30;59249;59.736;30.568;2023-04-25T14:25:49;23.60;29.74
71128;SHT30;59249;59.736;30.568;2023-04-25T14:28:20;23.48;29.65
71128;SHT30;59249;59.736;30.568;2023-04-25T14:30:49;23.53;29.63
71128;SHT30;59249;59.736;30.568;2023-04-25T14:33:21;23.66;29.58
71128;SHT30;59249;59.736;30.568;2023-04-25T14:35:55;23.82;29.69
71128;SHT30;59249;59.736;30.568;2023-04-25T14:38:36;23.80;29.33
71128;SHT30;59249;59.736;30.568;2023-04-25T14:41:22;24.04;29.48
71128;SHT30;59249;59.736;30.568;2023-04-25T14:43:52;24.02;29.61
71128;SHT30;59249;59.736;30.568;2023-04-25T14:46:22;23.93;29.31
71128;SHT30;59249;59.736;30.568;2023-04-25T14:48:52;23.78;29.04
71128;SHT30;59249;59.736;30.568;2023-04-25T14:51:23;23.54;29.13
71128;SHT30;59249;59.736;30.568;2023-04-25T14:53:53;23.24;29.59
71128;SHT30;59249;59.736;30.568;2023-04-25T14:56:22;23.02;29.50
71128;SHT30;59249;59.736;30.568;2023-04-25T14:58:51;23.24;29.57
71128;SHT30;59249;59.736;30.568;2023-04-25T15:01:20;23.50;29.31
71128;SHT30;59249;59.736;30.568;2023-04-25T15:03:49;23.79;29.23
71128;SHT30;59249;59.736;30.568;2023-04-25T15:06:20;24.20;29.08
71128;SHT30;59249;59.736;30.568;2023-04-25T15:08:49;24.56;29.02
71128;SHT30;59249;59.736;30.568;2023-04-25T15:11:18;24.84;28.46
71128;SHT30;59249;59.736;30.568;2023-04-25T15:13:47;24.92;28.10
71128;SHT30;59249;59.736;30.568;2023-04-25T15:16:16;24.96;27.92
71128;SHT30;59249;59.736;30.568;2023-04-25T15:18:45;25.20;27.87
71128;SHT30;59249;59.736;30.568;2023-04-25T15:21:14;25.21;27.72
71128;SHT30;59249;59.736;30.568;2023-04-25T15:23:44;25.26;27.89
71128;SHT30;59249;59.736;30.568;2023-04-25T15:26:13;25.29;27.89
71128;SHT30;59249;59.736;30.568;2023-04-25T15:28:41;25.34;27.34
71128;SHT30;59249;59.736;30.568;2023-04-25T15:31:10;25.50;27.50
71128;SHT30;59249;59.736;30.568;2023-04-25T15:33:39;25.63;27.47
71128;SHT30;59249;59.736;30.568;2023-04-25T15:36:08;25.81;27.57
71128;SHT30;59249;59.736;30.568;2023-04-25T15:38:38;25.94;27.45
71128;SHT30;59249;59.736;30.568;2023-04-25T15:41:08;26.08;27.32
71128;SHT30;59249;59.736;30.568;2023-04-25T15:43:36;26.18;27.16
71128;SHT30;59249;59.736;30.568;2023-04-25T15:46:06;26.44;26.86
71128;SHT30;59249;59.736;30.568;2023-04-25T15:48:36;26.48;26.75
71128;SHT30;59249;59.736;30.568;2023-04-25T15:51:05;26.39;26.84